sensor_id;sensor_type;location;lat;lon;timestamp;temperature;humidity
60860;DHT22;46694;54.382;9.708;2022-09-02T00:00:18;15.10;97.80
60860;DHT22;46694;54.382;9.708;2022-09-02T00:02:58;15.00;97.70
60860;DHT22;46694;54.382;9.708;2022-09-02T00:05:38;15.00;97.70
60860;DHT22;46694;54.382;9.708;2022-09-02T00:08:18;15.00;97.70
60860;DHT22;46694;54.382;9.708;2022-09-02T00:11:00;14.90;97.60
60860;DHT22;46694;54.382;9.708;2022-09-02T00:13:42;14.90;97.50
60860;DHT22;46694;54.382;9.708;2022-09-02T00:16:22;14.90;97.40
60860;DHT22;46694;54.382;9.708;2022-09-02T00:19:03;14.90;97.30
60860;DHT22;46694;54.382;9.708;2022-09-02T00:21:44;14.90;97.30
60860;DHT22;46694;54.382;9.708;2022-09-02T00:24:24;14.80;97.20
60860;DHT22;46694;54.382;9.708;2022-09-02T00:27:04;14.80;97.20
60860;DHT22;46694;54.382;9.708;2022-09-02T00:29:43;14.80;97.20
60860;DHT22;46694;54.382;9.708;2022-09-02T00:32:23;14.70;97.20
60860;DHT22;46694;54.382;9.708;2022-09-02T00:35:03;14.70;97.30
60860;DHT22;46694;54.382;9.708;2022-09-02T00:37:43;14.70;97.40
60860;DHT22;46694;54.382;9.708;2022-09-02T00:40:23;14.60;97.40
60860;DHT22;46694;54.382;9.708;2022-09-02T00:43:07;14.60;97.40
60860;DHT22;46694;54.382;9.708;2022-09-02T00:45:47;14.60;97.40
60860;DHT22;46694;54.382;9.708;2022-09-02T00:48:26;14.60;97.30
60860;DHT22;46694;54.382;9.708;2022-09-02T00:51:08;14.50;97.30
60860;DHT22;46694;54.382;9.708;2022-09-02T00:53:49;14.40;97.30
60860;DHT22;46694;54.382;9.708;2022-09-02T00:56:29;14.40;97.30
60860;DHT22;46694;54.382;9.708;2022-09-02T00:59:18;14.40;97.40
60860;DHT22;46694;54.382;9.708;2022-09-02T01:02:00;14.30;97.50
60860;DHT22;46694;54.382;9.708;2022-09-02T01:04:41;14.30;97.70
60860;DHT22;46694;54.382;9.708;2022-09-02T01:07:22;14.30;97.90
60860;DHT22;46694;54.382;9.708;2022-09-02T01:10:10;14.30;98.10
60860;DHT22;46694;54.382;9.708;2022-09-02T01:12:57;14.30;98.30
60860;DHT22;46694;54.382;9.708;2022-09-02T01:15:44;14.30;98.40
60860;DHT22;46694;54.382;9.708;2022-09-02T01:18:28;14.30;98.40
60860;DHT22;46694;54.382;9.708;2022-09-02T01:21:08;14.30;98.40
60860;DHT22;46694;54.382;9.708;2022-09-02T01:23:50;14.20;98.40
60860;DHT22;46694;54.382;9.708;2022-09-02T01:26:30;14.20;98.50
60860;DHT22;46694;54.382;9.708;2022-09-02T01:29:10;14.20;98.60
60860;DHT22;46694;54.382;9.708;2022-09-02T01:31:50;14.20;98.70
60860;DHT22;46694;54.382;9.708;2022-09-02T01:34:29;14.20;98.70
60860;DHT22;46694;54.382;9.708;2022-09-02T01:37:09;14.20;98.80
60860;DHT22;46694;54.382;9.708;2022-09-02T01:39:49;14.20;98.90
60860;DHT22;46694;54.382;9.708;2022-09-02T01:42:30;14.10;98.90
60860;DHT22;46694;54.382;9.708;2022-09-02T01:45:10;14.10;98.90
60860;DHT22;46694;54.382;9.708;2022-09-02T01:47:50;14.10;98.90
60860;DHT22;46694;54.382;9.708;2022-09-02T01:50:30;14.10;98.90
60860;DHT22;46694;54.382;9.708;2022-09-02T01:53:10;14.00;98.90
60860;DHT22;46694;54.382;9.708;2022-09-02T01:55:50;14.00;98.90
60860;DHT22;46694;54.382;9.708;2022-09-02T01:58:30;14.00;98.80
60860;DHT22;46694;54.382;9.708;2022-09-02T02:01:10;14.00;98.80
60860;DHT22;46694;54.382;9.708;2022-09-02T02:03:50;13.90;98.80
60860;DHT22;46694;54.382;9.708;2022-09-02T02:06:30;13.90;98.90
60860;DHT22;46694;54.382;9.708;2022-09-02T02:09:11;13.90;99.00
60860;DHT22;46694;54.382;9.708;2022-09-02T02:11:51;13.80;98.90
60860;DHT22;46694;54.382;9.708;2022-09-02T02:14:31;13.90;99.00
60860;DHT22;46694;54.382;9.708;2022-09-02T02:17:11;13.80;98.90
60860;DHT22;46694;54.382;9.708;2022-09-02T02:19:51;13.80;98.80
60860;DHT22;46694;54.382;9.708;2022-09-02T02:22:30;13.70;98.90
60860;DHT22;46694;54.382;9.708;2022-09-02T02:25:11;13.70;98.80
60860;DHT22;46694;54.382;9.708;2022-09-02T02:27:53;13.70;98.80
60860;DHT22;46694;54.382;9.708;2022-09-02T02:30:33;13.70;98.70
60860;DHT22;46694;54.382;9.708;2022-09-02T02:33:12;13.60;98.70
60860;DHT22;46694;54.382;9.708;2022-09-02T02:35:52;13.60;98.70
60860;DHT22;46694;54.382;9.708;2022-09-02T02:38:36;13.50;98.70
60860;DHT22;46694;54.382;9.708;2022-09-02T02:41:16;13.50;98.70
60860;DHT22;46694;54.382;9.708;2022-09-02T02:43:56;13.50;98.70
60860;DHT22;46694;54.382;9.708;2022-09-02T02:46:36;13.50;98.70
60860;DHT22;46694;54.382;9.708;2022-09-02T02:49:15;13.50;98.70
60860;DHT22;46694;54.382;9.708;2022-09-02T02:51:55;13.40;98.70
60860;DHT22;46694;54.382;9.708;2022-09-02T02:54:34;13.40;98.70
60860;DHT22;46694;54.382;9.708;2022-09-02T02:57:14;13.40;98.80
60860;DHT22;46694;54.382;9.708;2022-09-02T02:59:54;13.40;98.80
60860;DHT22;46694;54.382;9.708;2022-09-02T03:02:35;13.30;98.70
60860;DHT22;46694;54.382;9.708;2022-09-02T03:05:15;13.30;98.80
60860;DHT22;46694;54.382;9.708;2022-09-02T03:07:55;13.30;98.90
60860;DHT22;46694;54.382;9.708;2022-09-02T03:10:35;13.20;98.90
60860;DHT22;46694;54.382;9.708;2022-09-02T03:13:16;13.20;99.10
60860;DHT22;46694;54.382;9.708;2022-09-02T03:15:56;13.20;99.20
60860;DHT22;46694;54.382;9.708;2022-09-02T03:18:36;13.20;99.20
60860;DHT22;46694;54.382;9.708;2022-09-02T03:21:16;13.20;99.20
60860;DHT22;46694;54.382;9.708;2022-09-02T03:23:56;13.10;99.20
60860;DHT22;46694;54.382;9.708;2022-09-02T03:26:36;13.10;99.30
60860;DHT22;46694;54.382;9.708;2022-09-02T03:29:16;13.10;99.30
60860;DHT22;46694;54.382;9.708;2022-09-02T03:31:56;13.10;99.40
60860;DHT22;46694;54.382;9.708;2022-09-02T03:34:35;13.10;99.40
60860;DHT22;46694;54.382;9.708;2022-09-02T03:37:15;13.00;99.40
60860;DHT22;46694;54.382;9.708;2022-09-02T03:39:55;13.00;99.40
60860;DHT22;46694;54.382;9.708;2022-09-02T03:42:35;13.00;99.40
60860;DHT22;46694;54.382;9.708;2022-09-02T03:45:15;13.00;99.40
60860;DHT22;46694;54.382;9.708;2022-09-02T03:47:56;12.90;99.40
60860;DHT22;46694;54.382;9.708;2022-09-02T03:50:39;12.90;99.50
60860;DHT22;46694;54.382;9.708;2022-09-02T03:53:20;12.90;99.60
60860;DHT22;46694;54.382;9.708;2022-09-02T03:56:04;12.90;99.60
60860;DHT22;46694;54.382;9.708;2022-09-02T03:58:47;12.90;99.70
60860;DHT22;46694;54.382;9.708;2022-09-02T04:01:28;12.90;99.70
60860;DHT22;46694;54.382;9.708;2022-09-02T04:04:07;12.80;99.90
60860;DHT22;46694;54.382;9.708;2022-09-02T04:06:47;12.80;99.90
60860;DHT22;46694;54.382;9.708;2022-09-02T04:09:27;12.80;99.90
60860;DHT22;46694;54.382;9.708;2022-09-02T04:12:07;12.80;99.90
60860;DHT22;46694;54.382;9.708;2022-09-02T04:14:47;12.80;99.90
60860;DHT22;46694;54.382;9.708;2022-09-02T04:17:27;12.80;99.80
60860;DHT22;46694;54.382;9.708;2022-09-02T04:20:09;12.70;99.80
60860;DHT22;46694;54.382;9.708;2022-09-02T04:22:50;12.70;99.80
60860;DHT22;46694;54.382;9.708;2022-09-02T04:25:30;12.70;99.80
60860;DHT22;46694;54.382;9.708;2022-09-02T04:28:10;12.60;99.80
60860;DHT22;46694;54.382;9.708;2022-09-02T04:30:51;12.60;99.90
60860;DHT22;46694;54.382;9.708;2022-09-02T04:33:31;12.60;99.90
60860;DHT22;46694;54.382;9.708;2022-09-02T04:36:13;12.60;99.90
60860;DHT22;46694;54.382;9.708;2022-09-02T04:38:54;12.60;99.90
60860;DHT22;46694;54.382;9.708;2022-09-02T04:41:34;12.60;99.90
60860;DHT22;46694;54.382;9.708;2022-09-02T04:44:14;12.60;99.90
60860;DHT22;46694;54.382;9.708;2022-09-02T04:46:54;12.60;99.90
60860;DHT22;46694;54.382;9.708;2022-09-02T04:49:33;12.60;99.90
60860;DHT22;46694;54.382;9.708;2022-09-02T04:52:13;12.60;99.90
60860;DHT22;46694;54.382;9.708;2022-09-02T04:54:53;12.70;99.90
60860;DHT22;46694;54.382;9.708;2022-09-02T04:57:33;12.80;99.90
60860;DHT22;46694;54.382;9.708;2022-09-02T05:00:13;12.90;99.90
60860;DHT22;46694;54.382;9.708;2022-09-02T05:02:54;13.00;99.90
60860;DHT22;46694;54.382;9.708;2022-09-02T05:05:34;13.10;99.90
60860;DHT22;46694;54.382;9.708;2022-09-02T05:08:14;13.10;99.90
60860;DHT22;46694;54.382;9.708;2022-09-02T05:10:53;13.20;99.90
60860;DHT22;46694;54.382;9.708;2022-09-02T05:13:33;13.40;99.90
60860;DHT22;46694;54.382;9.708;2022-09-02T05:16:15;13.50;99.90
60860;DHT22;46694;54.382;9.708;2022-09-02T05:18:56;13.60;99.90
60860;DHT22;46694;54.382;9.708;2022-09-02T05:21:43;13.70;99.90
60860;DHT22;46694;54.382;9.708;2022-09-02T05:24:23;13.80;99.90
60860;DHT22;46694;54.382;9.708;2022-09-02T05:27:03;13.90;99.90
60860;DHT22;46694;54.382;9.708;2022-09-02T05:29:43;14.00;99.90
60860;DHT22;46694;54.382;9.708;2022-09-02T05:32:22;14.20;99.90
60860;DHT22;46694;54.382;9.708;2022-09-02T05:35:02;14.30;99.90
60860;DHT22;46694;54.382;9.708;2022-09-02T05:37:42;14.40;99.90
60860;DHT22;46694;54.382;9.708;2022-09-02T05:40:22;14.60;99.90
60860;DHT22;46694;54.382;9.708;2022-09-02T05:43:02;14.70;99.90
60860;DHT22;46694;54.382;9.708;2022-09-02T05:45:41;14.80;99.90
60860;DHT22;46694;54.382;9.708;2022-09-02T05:48:21;15.00;99.90
60860;DHT22;46694;54.382;9.708;2022-09-02T05:51:19;15.10;99.90
60860;DHT22;46694;54.382;9.708;2022-09-02T05:54:00;15.30;99.90
60860;DHT22;46694;54.382;9.708;2022-09-02T05:56:42;15.40;99.70
60860;DHT22;46694;54.382;9.708;2022-09-02T05:59:23;15.60;99.70
60860;DHT22;46694;54.382;9.708;2022-09-02T06:02:06;15.80;99.70
60860;DHT22;46694;54.382;9.708;2022-09-02T06:04:48;16.00;99.50
60860;DHT22;46694;54.382;9.708;2022-09-02T06:07:30;16.20;99.30
60860;DHT22;46694;54.382;9.708;2022-09-02T06:10:09;16.40;99.10
60860;DHT22;46694;54.382;9.708;2022-09-02T06:12:49;16.60;98.90
60860;DHT22;46694;54.382;9.708;2022-09-02T06:15:28;16.70;98.90
60860;DHT22;46694;54.382;9.708;2022-09-02T06:18:09;16.90;99.10
60860;DHT22;46694;54.382;9.708;2022-09-02T06:20:49;17.20;99.10
60860;DHT22;46694;54.382;9.708;2022-09-02T06:23:30;17.40;98.70
60860;DHT22;46694;54.382;9.708;2022-09-02T06:26:11;17.60;98.50
60860;DHT22;46694;54.382;9.708;2022-09-02T06:28:51;17.90;98.50
60860;DHT22;46694;54.382;9.708;2022-09-02T06:31:31;18.10;98.00
60860;DHT22;46694;54.382;9.708;2022-09-02T06:34:12;18.30;97.70
60860;DHT22;46694;54.382;9.708;2022-09-02T06:36:54;18.50;97.30
60860;DHT22;46694;54.382;9.708;2022-09-02T06:39:35;18.60;96.90
60860;DHT22;46694;54.382;9.708;2022-09-02T06:42:16;18.90;96.80
60860;DHT22;46694;54.382;9.708;2022-09-02T06:44:55;19.10;96.30
60860;DHT22;46694;54.382;9.708;2022-09-02T06:47:35;19.30;95.90
60860;DHT22;46694;54.382;9.708;2022-09-02T06:50:15;19.40;95.80
60860;DHT22;46694;54.382;9.708;2022-09-02T06:52:55;19.60;95.40
60860;DHT22;46694;54.382;9.708;2022-09-02T06:55:40;19.90;95.60
60860;DHT22;46694;54.382;9.708;2022-09-02T06:58:21;20.10;95.00
60860;DHT22;46694;54.382;9.708;2022-09-02T07:01:00;20.30;94.80
60860;DHT22;46694;54.382;9.708;2022-09-02T07:03:40;20.50;94.80
60860;DHT22;46694;54.382;9.708;2022-09-02T07:06:46;20.80;95.00
60860;DHT22;46694;54.382;9.708;2022-09-02T07:09:27;21.00;94.50
60860;DHT22;46694;54.382;9.708;2022-09-02T07:12:09;21.20;93.40
60860;DHT22;46694;54.382;9.708;2022-09-02T07:14:48;21.30;93.30
60860;DHT22;46694;54.382;9.708;2022-09-02T07:17:28;21.50;92.60
60860;DHT22;46694;54.382;9.708;2022-09-02T07:20:08;21.60;91.80
60860;DHT22;46694;54.382;9.708;2022-09-02T07:22:48;21.80;91.10
60860;DHT22;46694;54.382;9.708;2022-09-02T07:25:28;21.90;90.40
60860;DHT22;46694;54.382;9.708;2022-09-02T07:28:09;21.90;90.00
60860;DHT22;46694;54.382;9.708;2022-09-02T07:30:49;22.10;89.60
60860;DHT22;46694;54.382;9.708;2022-09-02T07:33:32;22.30;88.40
60860;DHT22;46694;54.382;9.708;2022-09-02T07:36:12;22.60;86.50
60860;DHT22;46694;54.382;9.708;2022-09-02T07:38:53;22.80;85.40
60860;DHT22;46694;54.382;9.708;2022-09-02T07:41:33;22.90;82.90
60860;DHT22;46694;54.382;9.708;2022-09-02T07:44:14;22.70;81.70
60860;DHT22;46694;54.382;9.708;2022-09-02T07:46:54;22.70;81.30
60860;DHT22;46694;54.382;9.708;2022-09-02T07:49:34;22.60;81.00
60860;DHT22;46694;54.382;9.708;2022-09-02T07:52:13;22.90;80.70
60860;DHT22;46694;54.382;9.708;2022-09-02T07:54:55;23.20;79.70
60860;DHT22;46694;54.382;9.708;2022-09-02T07:57:34;23.50;79.20
60860;DHT22;46694;54.382;9.708;2022-09-02T08:00:15;23.70;78.20
60860;DHT22;46694;54.382;9.708;2022-09-02T08:02:58;23.90;77.00
60860;DHT22;46694;54.382;9.708;2022-09-02T08:05:38;24.10;76.40
60860;DHT22;46694;54.382;9.708;2022-09-02T08:08:19;24.40;75.50
60860;DHT22;46694;54.382;9.708;2022-09-02T08:10:59;24.50;74.30
60860;DHT22;46694;54.382;9.708;2022-09-02T08:13:39;24.70;73.40
60860;DHT22;46694;54.382;9.708;2022-09-02T08:16:18;24.90;71.90
60860;DHT22;46694;54.382;9.708;2022-09-02T08:18:58;24.90;71.30
60860;DHT22;46694;54.382;9.708;2022-09-02T08:21:38;25.10;70.70
60860;DHT22;46694;54.382;9.708;2022-09-02T08:24:18;25.10;69.10
60860;DHT22;46694;54.382;9.708;2022-09-02T08:26:58;25.10;68.40
60860;DHT22;46694;54.382;9.708;2022-09-02T08:29:38;25.30;67.00
60860;DHT22;46694;54.382;9.708;2022-09-02T08:32:18;25.20;65.40
60860;DHT22;46694;54.382;9.708;2022-09-02T08:34:58;25.20;64.40
60860;DHT22;46694;54.382;9.708;2022-09-02T08:37:40;25.20;63.70
60860;DHT22;46694;54.382;9.708;2022-09-02T08:40:22;25.30;62.10
60860;DHT22;46694;54.382;9.708;2022-09-02T08:46:03;25.50;59.50
60860;DHT22;46694;54.382;9.708;2022-09-02T08:49:06;25.50;58.30
60860;DHT22;46694;54.382;9.708;2022-09-02T08:51:50;25.70;57.30
60860;DHT22;46694;54.382;9.708;2022-09-02T08:57:41;25.50;54.50
60860;DHT22;46694;54.382;9.708;2022-09-02T09:00:22;25.60;53.60
60860;DHT22;46694;54.382;9.708;2022-09-02T09:16:40;25.70;49.20
60860;DHT22;46694;54.382;9.708;2022-09-02T09:19:46;25.60;49.80
60860;DHT22;46694;54.382;9.708;2022-09-02T09:22:37;25.80;50.10
60860;DHT22;46694;54.382;9.708;2022-09-02T09:25:17;26.10;50.30
60860;DHT22;46694;54.382;9.708;2022-09-02T09:27:58;26.30;49.90
60860;DHT22;46694;54.382;9.708;2022-09-02T09:30:39;26.40;49.40
60860;DHT22;46694;54.382;9.708;2022-09-02T09:33:20;26.60;49.40
60860;DHT22;46694;54.382;9.708;2022-09-02T09:39:52;26.80;48.10
60860;DHT22;46694;54.382;9.708;2022-09-02T09:42:34;26.80;48.10
60860;DHT22;46694;54.382;9.708;2022-09-02T09:45:19;26.90;48.10
60860;DHT22;46694;54.382;9.708;2022-09-02T09:48:24;26.80;47.60
60860;DHT22;46694;54.382;9.708;2022-09-02T09:51:11;26.80;47.80
60860;DHT22;46694;54.382;9.708;2022-09-02T09:53:52;26.80;48.00
60860;DHT22;46694;54.382;9.708;2022-09-02T09:56:32;26.70;48.20
60860;DHT22;46694;54.382;9.708;2022-09-02T09:59:42;26.60;47.80
60860;DHT22;46694;54.382;9.708;2022-09-02T10:02:26;26.70;47.40
60860;DHT22;46694;54.382;9.708;2022-09-02T10:08:20;26.50;47.10
60860;DHT22;46694;54.382;9.708;2022-09-02T10:11:20;26.30;47.40
60860;DHT22;46694;54.382;9.708;2022-09-02T10:14:07;26.30;47.30
60860;DHT22;46694;54.382;9.708;2022-09-02T10:20:07;26.30;47.50
60860;DHT22;46694;54.382;9.708;2022-09-02T10:23:29;26.20;47.20
60860;DHT22;46694;54.382;9.708;2022-09-02T10:44:29;26.30;47.20
60860;DHT22;46694;54.382;9.708;2022-09-02T10:47:32;26.20;48.10
60860;DHT22;46694;54.382;9.708;2022-09-02T10:50:20;26.30;48.60
60860;DHT22;46694;54.382;9.708;2022-09-02T10:53:36;26.20;48.90
60860;DHT22;46694;54.382;9.708;2022-09-02T10:56:24;26.10;48.90
60860;DHT22;46694;54.382;9.708;2022-09-02T10:59:12;25.90;48.30
60860;DHT22;46694;54.382;9.708;2022-09-02T11:02:10;25.80;48.20
60860;DHT22;46694;54.382;9.708;2022-09-02T11:05:01;25.80;47.70
60860;DHT22;46694;54.382;9.708;2022-09-02T11:07:59;25.80;47.60
60860;DHT22;46694;54.382;9.708;2022-09-02T11:17:22;25.60;48.30
60860;DHT22;46694;54.382;9.708;2022-09-02T11:23:46;25.60;48.10
60860;DHT22;46694;54.382;9.708;2022-09-02T11:26:36;25.60;48.30
60860;DHT22;46694;54.382;9.708;2022-09-02T11:32:58;25.40;48.40
60860;DHT22;46694;54.382;9.708;2022-09-02T11:35:45;25.30;48.40
60860;DHT22;46694;54.382;9.708;2022-09-02T11:38:53;25.20;48.30
60860;DHT22;46694;54.382;9.708;2022-09-02T11:48:05;25.10;48.80
60860;DHT22;46694;54.382;9.708;2022-09-02T11:54:10;25.10;49.30
60860;DHT22;46694;54.382;9.708;2022-09-02T11:56:58;25.20;49.50
60860;DHT22;46694;54.382;9.708;2022-09-02T12:00:01;25.30;50.20
60860;DHT22;46694;54.382;9.708;2022-09-02T12:02:50;25.20;49.60
60860;DHT22;46694;54.382;9.708;2022-09-02T12:11:43;25.00;52.00
60860;DHT22;46694;54.382;9.708;2022-09-02T12:17:05;24.80;53.10
60860;DHT22;46694;54.382;9.708;2022-09-02T12:19:46;24.70;51.60
60860;DHT22;46694;54.382;9.708;2022-09-02T12:22:32;24.70;51.20
60860;DHT22;46694;54.382;9.708;2022-09-02T12:28:26;24.70;51.40
60860;DHT22;46694;54.382;9.708;2022-09-02T12:31:10;24.70;51.70
60860;DHT22;46694;54.382;9.708;2022-09-02T12:37:03;24.60;51.50
60860;DHT22;46694;54.382;9.708;2022-09-02T12:42:30;24.70;50.30
60860;DHT22;46694;54.382;9.708;2022-09-02T12:45:25;24.70;50.10
60860;DHT22;46694;54.382;9.708;2022-09-02T12:48:18;24.70;50.80
60860;DHT22;46694;54.382;9.708;2022-09-02T12:50:58;24.70;50.00
60860;DHT22;46694;54.382;9.708;2022-09-02T12:53:45;24.60;48.90
60860;DHT22;46694;54.382;9.708;2022-09-02T12:56:27;24.50;49.00
60860;DHT22;46694;54.382;9.708;2022-09-02T12:59:07;24.40;49.80
60860;DHT22;46694;54.382;9.708;2022-09-02T13:01:48;24.30;50.10
60860;DHT22;46694;54.382;9.708;2022-09-02T13:08:04;24.30;49.20
60860;DHT22;46694;54.382;9.708;2022-09-02T13:14:33;24.30;48.30
60860;DHT22;46694;54.382;9.708;2022-09-02T13:24:37;23.90;47.30
60860;DHT22;46694;54.382;9.708;2022-09-02T13:34:09;24.00;47.80
60860;DHT22;46694;54.382;9.708;2022-09-02T13:36:49;24.00;48.10
60860;DHT22;46694;54.382;9.708;2022-09-02T13:39:29;23.90;48.60
60860;DHT22;46694;54.382;9.708;2022-09-02T13:42:17;23.90;49.30
60860;DHT22;46694;54.382;9.708;2022-09-02T13:45:15;23.80;49.70
60860;DHT22;46694;54.382;9.708;2022-09-02T13:47:59;23.70;50.00
60860;DHT22;46694;54.382;9.708;2022-09-02T13:50:44;23.70;50.70
60860;DHT22;46694;54.382;9.708;2022-09-02T13:53:34;23.70;51.70
60860;DHT22;46694;54.382;9.708;2022-09-02T13:56:23;23.60;51.30
60860;DHT22;46694;54.382;9.708;2022-09-02T13:59:03;23.60;51.40
60860;DHT22;46694;54.382;9.708;2022-09-02T14:01:43;23.60;51.40
60860;DHT22;46694;54.382;9.708;2022-09-02T14:04:22;23.60;51.70
60860;DHT22;46694;54.382;9.708;2022-09-02T14:07:03;23.50;51.90
60860;DHT22;46694;54.382;9.708;2022-09-02T14:09:46;23.40;52.20
60860;DHT22;46694;54.382;9.708;2022-09-02T14:12:27;23.30;52.60
60860;DHT22;46694;54.382;9.708;2022-09-02T14:15:13;23.30;52.90
60860;DHT22;46694;54.382;9.708;2022-09-02T14:18:20;23.30;53.20
60860;DHT22;46694;54.382;9.708;2022-09-02T14:21:09;23.30;53.60
60860;DHT22;46694;54.382;9.708;2022-09-02T14:23:55;23.30;54.30
60860;DHT22;46694;54.382;9.708;2022-09-02T14:26:42;23.30;54.00
60860;DHT22;46694;54.382;9.708;2022-09-02T14:29:23;23.30;54.40
60860;DHT22;46694;54.382;9.708;2022-09-02T14:37:58;23.10;54.20
60860;DHT22;46694;54.382;9.708;2022-09-02T14:40:39;23.00;54.60
60860;DHT22;46694;54.382;9.708;2022-09-02T14:43:23;22.90;55.30
60860;DHT22;46694;54.382;9.708;2022-09-02T14:46:05;22.90;55.40
60860;DHT22;46694;54.382;9.708;2022-09-02T14:51:38;23.10;55.90
60860;DHT22;46694;54.382;9.708;2022-09-02T14:57:31;23.20;55.30
60860;DHT22;46694;54.382;9.708;2022-09-02T15:00:13;23.10;56.30
60860;DHT22;46694;54.382;9.708;2022-09-02T15:02:55;23.00;56.50
60860;DHT22;46694;54.382;9.708;2022-09-02T15:05:35;22.90;57.80
60860;DHT22;46694;54.382;9.708;2022-09-02T15:08:15;22.80;58.20
60860;DHT22;46694;54.382;9.708;2022-09-02T15:10:58;22.80;58.60
60860;DHT22;46694;54.382;9.708;2022-09-02T15:13:38;22.80;58.40
60860;DHT22;46694;54.382;9.708;2022-09-02T15:16:18;22.70;58.70
60860;DHT22;46694;54.382;9.708;2022-09-02T15:18:57;22.70;58.90
60860;DHT22;46694;54.382;9.708;2022-09-02T15:21:38;22.60;59.50
60860;DHT22;46694;54.382;9.708;2022-09-02T15:24:19;22.50;60.20
60860;DHT22;46694;54.382;9.708;2022-09-02T15:26:58;22.40;60.40
60860;DHT22;46694;54.382;9.708;2022-09-02T15:29:38;22.40;60.60
60860;DHT22;46694;54.382;9.708;2022-09-02T15:32:18;22.30;60.60
60860;DHT22;46694;54.382;9.708;2022-09-02T15:34:58;22.30;61.40
60860;DHT22;46694;54.382;9.708;2022-09-02T15:37:37;22.20;62.20
60860;DHT22;46694;54.382;9.708;2022-09-02T15:40:17;22.20;63.30
60860;DHT22;46694;54.382;9.708;2022-09-02T15:42:57;22.00;62.80
60860;DHT22;46694;54.382;9.708;2022-09-02T15:45:44;21.90;63.20
60860;DHT22;46694;54.382;9.708;2022-09-02T15:48:27;21.80;64.00
60860;DHT22;46694;54.382;9.708;2022-09-02T15:51:11;21.70;64.60
60860;DHT22;46694;54.382;9.708;2022-09-02T15:53:58;21.60;64.60
60860;DHT22;46694;54.382;9.708;2022-09-02T15:56:41;21.50;65.60
60860;DHT22;46694;54.382;9.708;2022-09-02T15:59:22;21.50;65.60
60860;DHT22;46694;54.382;9.708;2022-09-02T16:02:01;21.50;66.30
60860;DHT22;46694;54.382;9.708;2022-09-02T16:04:41;21.40;67.20
60860;DHT22;46694;54.382;9.708;2022-09-02T16:07:23;21.30;67.10
60860;DHT22;46694;54.382;9.708;2022-09-02T16:10:02;21.20;66.90
60860;DHT22;46694;54.382;9.708;2022-09-02T16:12:42;21.10;67.40
60860;DHT22;46694;54.382;9.708;2022-09-02T16:15:22;21.10;68.20
60860;DHT22;46694;54.382;9.708;2022-09-02T16:18:02;21.10;68.60
60860;DHT22;46694;54.382;9.708;2022-09-02T16:20:41;21.00;68.60
60860;DHT22;46694;54.382;9.708;2022-09-02T16:23:21;20.90;68.10
60860;DHT22;46694;54.382;9.708;2022-09-02T16:26:21;20.90;68.50
60860;DHT22;46694;54.382;9.708;2022-09-02T16:29:05;20.90;68.30
60860;DHT22;46694;54.382;9.708;2022-09-02T16:31:47;20.80;68.80
60860;DHT22;46694;54.382;9.708;2022-09-02T16:34:27;20.80;68.90
60860;DHT22;46694;54.382;9.708;2022-09-02T16:37:06;20.80;69.30
60860;DHT22;46694;54.382;9.708;2022-09-02T16:39:46;20.70;69.00
60860;DHT22;46694;54.382;9.708;2022-09-02T16:42:26;20.70;69.00
60860;DHT22;46694;54.382;9.708;2022-09-02T16:45:06;20.60;69.30
60860;DHT22;46694;54.382;9.708;2022-09-02T16:47:46;20.60;69.50
60860;DHT22;46694;54.382;9.708;2022-09-02T16:50:26;20.60;70.70
60860;DHT22;46694;54.382;9.708;2022-09-02T16:53:05;20.60;70.20
60860;DHT22;46694;54.382;9.708;2022-09-02T16:55:45;20.50;70.60
60860;DHT22;46694;54.382;9.708;2022-09-02T16:58:25;20.50;70.80
60860;DHT22;46694;54.382;9.708;2022-09-02T17:01:09;20.50;71.10
60860;DHT22;46694;54.382;9.708;2022-09-02T17:03:50;20.40;71.50
60860;DHT22;46694;54.382;9.708;2022-09-02T17:06:30;20.40;72.00
60860;DHT22;46694;54.382;9.708;2022-09-02T17:09:10;20.30;72.30
60860;DHT22;46694;54.382;9.708;2022-09-02T17:11:49;20.30;72.60
60860;DHT22;46694;54.382;9.708;2022-09-02T17:14:30;20.30;73.40
60860;DHT22;46694;54.382;9.708;2022-09-02T17:17:09;20.20;73.90
60860;DHT22;46694;54.382;9.708;2022-09-02T17:19:53;20.20;74.30
60860;DHT22;46694;54.382;9.708;2022-09-02T17:22:32;20.10;74.30
60860;DHT22;46694;54.382;9.708;2022-09-02T17:25:12;20.10;74.50
60860;DHT22;46694;54.382;9.708;2022-09-02T17:27:52;20.10;74.90
60860;DHT22;46694;54.382;9.708;2022-09-02T17:30:31;20.00;75.30
60860;DHT22;46694;54.382;9.708;2022-09-02T17:33:11;19.90;75.70
60860;DHT22;46694;54.382;9.708;2022-09-02T17:35:55;19.90;76.20
60860;DHT22;46694;54.382;9.708;2022-09-02T17:38:35;19.80;76.40
60860;DHT22;46694;54.382;9.708;2022-09-02T17:41:15;19.80;76.50
60860;DHT22;46694;54.382;9.708;2022-09-02T17:44:14;19.80;76.80
60860;DHT22;46694;54.382;9.708;2022-09-02T17:46:53;19.70;77.30
60860;DHT22;46694;54.382;9.708;2022-09-02T17:49:37;19.70;77.60
60860;DHT22;46694;54.382;9.708;2022-09-02T17:52:19;19.60;77.90
60860;DHT22;46694;54.382;9.708;2022-09-02T17:55:00;19.60;78.40
60860;DHT22;46694;54.382;9.708;2022-09-02T17:57:49;19.50;78.70
60860;DHT22;46694;54.382;9.708;2022-09-02T18:00:54;19.50;79.40
60860;DHT22;46694;54.382;9.708;2022-09-02T18:03:49;19.40;80.10
60860;DHT22;46694;54.382;9.708;2022-09-02T18:06:39;19.40;80.90
60860;DHT22;46694;54.382;9.708;2022-09-02T18:09:21;19.30;81.50
60860;DHT22;46694;54.382;9.708;2022-09-02T18:12:01;19.30;82.00
60860;DHT22;46694;54.382;9.708;2022-09-02T18:14:47;19.30;82.60
60860;DHT22;46694;54.382;9.708;2022-09-02T18:17:35;19.20;83.20
60860;DHT22;46694;54.382;9.708;2022-09-02T18:20:40;19.20;83.80
60860;DHT22;46694;54.382;9.708;2022-09-02T18:23:41;19.10;84.40
60860;DHT22;46694;54.382;9.708;2022-09-02T18:38:48;18.80;87.50
60860;DHT22;46694;54.382;9.708;2022-09-02T18:47:31;18.70;89.00
60860;DHT22;46694;54.382;9.708;2022-09-02T18:50:35;18.70;89.60
60860;DHT22;46694;54.382;9.708;2022-09-02T18:53:44;18.70;90.10
60860;DHT22;46694;54.382;9.708;2022-09-02T18:56:32;18.60;90.20
60860;DHT22;46694;54.382;9.708;2022-09-02T18:59:18;18.60;90.40
60860;DHT22;46694;54.382;9.708;2022-09-02T19:02:12;18.50;90.60
60860;DHT22;46694;54.382;9.708;2022-09-02T19:04:57;18.50;90.80
60860;DHT22;46694;54.382;9.708;2022-09-02T19:07:38;18.50;91.00
60860;DHT22;46694;54.382;9.708;2022-09-02T19:10:39;18.50;91.10
60860;DHT22;46694;54.382;9.708;2022-09-02T19:13:18;18.40;91.30
60860;DHT22;46694;54.382;9.708;2022-09-02T19:16:01;18.40;91.50
60860;DHT22;46694;54.382;9.708;2022-09-02T19:18:41;18.40;91.70
60860;DHT22;46694;54.382;9.708;2022-09-02T19:21:39;18.40;91.80
60860;DHT22;46694;54.382;9.708;2022-09-02T19:24:29;18.30;92.00
60860;DHT22;46694;54.382;9.708;2022-09-02T19:27:19;18.30;92.10
60860;DHT22;46694;54.382;9.708;2022-09-02T19:30:11;18.30;92.20